Chang Sheng — V3PK — position and weather

sailwx.info

Track history (hours):
 
Tides and Currents Weather Stations Pressure Air Temp Water Temp Dewpoint Dewpoint Depression Visibility Wind Speed Wind Dir Waves Ship Positions

Chang Sheng

Last reported at 2016-May-27 03:17 UTC. Time now 2016-May-27 04:31 UTC.
Position N 34°40' E 135°25'.

Length 86 m; draft 4.5 m.

Type: Cargo ship. MMSI: 312161000.

Date/timePositionNaut miles runAvg speedWind from/ knotsBaromVisibWave heightAir tempDewpointWater temp
2016-May-27 03:17N 34°40' E 135°25'0 0.0
2016-May-27 02:29N 34°40' E 135°25'0 0.0
2016-May-27 01:29N 34°40' E 135°25'0 0.0
2016-May-27 00:18N 34°40' E 135°25'1 1.3
2016-May-26 23:33N 34°40' E 135°25'3 2.2
2016-May-26 22:13N 34°37' E 135°23'0 0.0
2016-May-26 21:25N 34°37' E 135°23'0 0.0
2016-May-26 20:31N 34°37' E 135°23'0 0.0
2016-May-26 19:31N 34°37' E 135°23'0 0.0
2016-May-26 18:31N 34°37' E 135°23'0 0.0
2016-May-26 17:31N 34°37' E 135°23'0 0.0
2016-May-26 16:31N 34°37' E 135°23'0 0.0
2016-May-26 15:31N 34°37' E 135°23'0 0.0
2016-May-26 14:31N 34°37' E 135°23'2 1.7
2016-May-26 13:33N 34°37' E 135°21'9 8.5
2016-May-26 12:33N 34°35' E 135°11'8 7.8
2016-May-26 11:32N 34°37' E 135°01'8 8.1
2016-May-26 10:33N 34°34' E 134°52'  
2016-May-20 17:10N 37°07' E 123°18'6 8.9
2016-May-20 16:33N 37°12' E 123°16'9 9.1
2016-May-20 15:33N 37°18' E 123°07'10 9.9
2016-May-20 14:32N 37°26' E 122°59'10 9.8
2016-May-20 13:31N 37°34' E 122°53'12 9.0
2016-May-20 12:14N 37°44' E 122°45'6 8.6
2016-May-20 11:33N 37°49' E 122°41'47 8.7
2016-May-20 06:08N 38°27' E 122°06'13 8.6
2016-May-20 04:33N 38°38' E 121°56'17 8.2
2016-May-20 02:30N 38°53' E 121°45'4 0.2
2016-May-19 02:22N 38°56' E 121°47'7 9.0
2016-May-19 01:33N 38°49' E 121°48'10 9.8
2016-May-19 00:33N 38°40' E 121°54'58 9.3
2016-May-18 18:16N 37°50' E 122°33'7 9.5
2016-May-18 17:33N 37°45' E 122°37'9 9.3
2016-May-18 16:33N 37°37' E 122°43'9 8.7
2016-May-18 15:32N 37°29' E 122°49'8 8.2
2016-May-18 14:33N 37°21' E 122°52'8 8.5
2016-May-18 13:33N 37°13' E 122°52'8 8.5
2016-May-18 12:33N 37°05' E 122°47'10 9.2
2016-May-18 11:31N 36°58' E 122°40'9 8.8
2016-May-18 10:33N 36°51' E 122°33'7 7.0
2016-May-18 09:33N 36°51' E 122°24'  
Track history (hours):
 
Tides and Currents Weather Stations Pressure Air Temp Water Temp Dewpoint Dewpoint Depression Visibility Wind Speed Wind Dir Waves Ship Positions

Chang Sheng

Last reported at 2016-May-27 03:17 UTC. Time now 2016-May-27 04:31 UTC.
Position N 34°40' E 135°25'.

Length 86 m; draft 4.5 m.

Type: Cargo ship. MMSI: 312161000.

Date/timePositionNaut miles runAvg speedWind from/ knotsBaromVisibWave heightAir tempDewpointWater temp
2016-May-27 03:17N 34°40' E 135°25'0 0.0
2016-May-27 02:29N 34°40' E 135°25'0 0.0
2016-May-27 01:29N 34°40' E 135°25'0 0.0
2016-May-27 00:18N 34°40' E 135°25'1 1.3
2016-May-26 23:33N 34°40' E 135°25'3 2.2
2016-May-26 22:13N 34°37' E 135°23'0 0.0
2016-May-26 21:25N 34°37' E 135°23'0 0.0
2016-May-26 20:31N 34°37' E 135°23'0 0.0
2016-May-26 19:31N 34°37' E 135°23'0 0.0
2016-May-26 18:31N 34°37' E 135°23'0 0.0
2016-May-26 17:31N 34°37' E 135°23'0 0.0
2016-May-26 16:31N 34°37' E 135°23'0 0.0
2016-May-26 15:31N 34°37' E 135°23'0 0.0
2016-May-26 14:31N 34°37' E 135°23'2 1.7
2016-May-26 13:33N 34°37' E 135°21'9 8.5
2016-May-26 12:33N 34°35' E 135°11'8 7.8
2016-May-26 11:32N 34°37' E 135°01'8 8.1
2016-May-26 10:33N 34°34' E 134°52'  
2016-May-20 17:10N 37°07' E 123°18'6 8.9
2016-May-20 16:33N 37°12' E 123°16'9 9.1
2016-May-20 15:33N 37°18' E 123°07'10 9.9
2016-May-20 14:32N 37°26' E 122°59'10 9.8
2016-May-20 13:31N 37°34' E 122°53'12 9.0
2016-May-20 12:14N 37°44' E 122°45'6 8.6
2016-May-20 11:33N 37°49' E 122°41'47 8.7
2016-May-20 06:08N 38°27' E 122°06'13 8.6
2016-May-20 04:33N 38°38' E 121°56'17 8.2
2016-May-20 02:30N 38°53' E 121°45'4 0.2
2016-May-19 02:22N 38°56' E 121°47'7 9.0
2016-May-19 01:33N 38°49' E 121°48'10 9.8
2016-May-19 00:33N 38°40' E 121°54'58 9.3
2016-May-18 18:16N 37°50' E 122°33'7 9.5
2016-May-18 17:33N 37°45' E 122°37'9 9.3
2016-May-18 16:33N 37°37' E 122°43'9 8.7
2016-May-18 15:32N 37°29' E 122°49'8 8.2
2016-May-18 14:33N 37°21' E 122°52'8 8.5
2016-May-18 13:33N 37°13' E 122°52'8 8.5
2016-May-18 12:33N 37°05' E 122°47'10 9.2
2016-May-18 11:31N 36°58' E 122°40'9 8.8
2016-May-18 10:33N 36°51' E 122°33'7 7.0
2016-May-18 09:33N 36°51' E 122°24'  

Dump ship's entire track history